createdAt,value
2018-06-08T00:01:08.896Z,13.83
2018-06-08T00:03:38.350Z,14.07
2018-06-08T00:06:07.586Z,15.28
2018-06-08T00:08:36.772Z,14.38
2018-06-08T00:11:06.665Z,15.23
2018-06-08T00:13:37.392Z,14.05
2018-06-08T00:16:06.784Z,14.65
2018-06-08T00:18:36.545Z,14.80
2018-06-08T00:21:06.049Z,15.08
2018-06-08T00:23:35.189Z,15.55
2018-06-08T00:26:04.416Z,15.20
2018-06-08T00:28:33.951Z,15.63
2018-06-08T00:31:03.120Z,15.60
2018-06-08T00:33:32.323Z,15.50
2018-06-08T00:36:01.801Z,15.72
2018-06-08T00:38:31.152Z,16.10
2018-06-08T00:41:00.143Z,15.90
2018-06-08T00:43:29.648Z,15.68
2018-06-08T00:45:58.796Z,15.45
2018-06-08T00:48:27.855Z,14.83
2018-06-08T00:50:57.304Z,14.38
2018-06-08T00:53:26.542Z,15.05
2018-06-08T00:55:55.840Z,14.28
2018-06-08T00:58:25.040Z,15.10
2018-06-08T01:00:54.140Z,14.15
2018-06-08T01:03:23.549Z,15.28
2018-06-08T01:05:52.737Z,15.25
2018-06-08T01:08:21.892Z,14.40
2018-06-08T01:10:51.122Z,15.32
2018-06-08T01:13:20.596Z,14.60
2018-06-08T01:15:49.960Z,14.45
2018-06-08T01:18:19.096Z,13.85
2018-06-08T01:20:48.908Z,15.25
2018-06-08T01:23:18.243Z,13.85
2018-06-08T01:25:47.396Z,14.50
2018-06-08T01:28:17.924Z,14.30
2018-06-08T01:30:47.144Z,14.58
2018-06-08T01:33:16.373Z,14.83
2018-06-08T01:35:45.540Z,14.45
2018-06-08T01:38:14.741Z,14.23
2018-06-08T01:40:43.951Z,14.33
2018-06-08T01:43:13.161Z,14.45
2018-06-08T01:45:42.337Z,14.60
2018-06-08T01:48:11.508Z,14.18
2018-06-08T01:50:41.274Z,15.10
2018-06-08T01:53:10.668Z,15.98
2018-06-08T01:55:39.865Z,14.98
2018-06-08T01:58:09.301Z,15.32
2018-06-08T02:00:38.561Z,15.78
2018-06-08T02:03:07.665Z,14.70
2018-06-08T02:05:36.956Z,15.25
2018-06-08T02:08:06.162Z,14.70
2018-06-08T02:10:35.333Z,13.75
2018-06-08T02:13:04.521Z,13.85
2018-06-08T02:15:33.616Z,13.28
2018-06-08T02:18:03.869Z,13.35
2018-06-08T02:20:33.380Z,13.45
2018-06-08T02:23:02.526Z,14.05
2018-06-08T02:25:31.752Z,15.85
2018-06-08T02:28:00.974Z,14.43
2018-06-08T02:30:30.250Z,14.15
2018-06-08T02:32:59.518Z,13.93
2018-06-08T02:35:29.136Z,13.85
2018-06-08T02:37:58.348Z,14.05
2018-06-08T02:40:27.540Z,13.98
2018-06-08T02:42:56.996Z,14.35
2018-06-08T02:45:26.070Z,14.45
2018-06-08T02:47:55.252Z,14.33
2018-06-08T02:50:24.652Z,13.90
2018-06-08T02:52:53.928Z,13.53
2018-06-08T02:55:23.145Z,13.72
2018-06-08T02:57:52.364Z,13.88
2018-06-08T03:00:21.729Z,13.08
2018-06-08T03:02:51.864Z,13.80
2018-06-08T03:05:21.508Z,14.75
2018-06-08T03:07:50.796Z,13.85
2018-06-08T03:10:19.949Z,13.45
2018-06-08T03:12:49.072Z,13.35
2018-06-08T03:15:18.293Z,13.25
2018-06-08T03:17:47.496Z,13.65
2018-06-08T03:20:17.376Z,13.48
2018-06-08T03:22:46.577Z,14.47
2018-06-08T03:25:15.800Z,13.78
2018-06-08T03:27:45.006Z,12.85
2018-06-08T03:30:14.150Z,11.75
2018-06-08T03:32:43.496Z,11.33
2018-06-08T03:35:12.900Z,11.50
2018-06-08T03:37:42.061Z,12.03
2018-06-08T03:40:11.296Z,13.30
2018-06-08T03:42:40.801Z,12.45
2018-06-08T03:45:09.960Z,12.25
2018-06-08T03:47:39.169Z,12.07
2018-06-08T03:50:08.309Z,11.83
2018-06-08T03:52:37.404Z,11.53
2018-06-08T03:55:06.648Z,11.55
2018-06-08T03:57:36.256Z,12.78
2018-06-08T04:00:05.696Z,12.55
2018-06-08T04:02:35.776Z,13.05
2018-06-08T04:05:05.592Z,12.68
2018-06-08T04:07:34.800Z,12.95
2018-06-08T04:10:04.292Z,12.55
2018-06-08T04:12:33.480Z,11.80
2018-06-08T04:15:02.728Z,13.00
2018-06-08T04:17:31.896Z,12.37
2018-06-08T04:20:01.076Z,12.25
2018-06-08T04:22:31.036Z,12.53
2018-06-08T04:25:00.236Z,13.08
2018-06-08T04:27:29.403Z,14.03
2018-06-08T04:29:58.899Z,13.03
2018-06-08T04:32:28.115Z,13.30
2018-06-08T04:34:57.305Z,13.65
2018-06-08T04:37:26.800Z,12.30
2018-06-08T04:39:55.988Z,12.63
2018-06-08T04:42:25.232Z,12.75
2018-06-08T04:44:54.404Z,12.10
2018-06-08T04:47:24.572Z,12.13
2018-06-08T04:49:53.816Z,11.15
2018-06-08T04:52:23.008Z,11.73
2018-06-08T04:54:52.720Z,11.38
2018-06-08T04:57:22.980Z,10.98
2018-06-08T04:59:53.485Z,10.85
2018-06-08T05:02:24.347Z,10.28
2018-06-08T05:04:53.516Z,11.40
2018-06-08T05:07:23.520Z,11.12
2018-06-08T05:09:52.712Z,10.88
2018-06-08T05:12:22.429Z,11.57
2018-06-08T05:14:52.752Z,11.93
2018-06-08T05:17:21.864Z,12.10
2018-06-08T05:19:51.040Z,11.65
2018-06-08T05:22:21.101Z,11.90
2018-06-08T05:24:50.252Z,10.78
2018-06-08T05:27:20.484Z,11.75
2018-06-08T05:29:50.328Z,12.65
2018-06-08T05:32:19.509Z,12.35
2018-06-08T05:34:49.422Z,14.25
2018-06-08T05:37:18.600Z,12.60
2018-06-08T05:39:49.528Z,15.70
2018-06-08T05:42:19.676Z,15.65
2018-06-08T05:44:50.400Z,16.48
2018-06-08T05:47:20.965Z,17.20
2018-06-08T05:49:51.700Z,16.87
2018-06-08T05:52:22.220Z,16.40
2018-06-08T05:54:52.104Z,17.73
2018-06-08T05:57:22.120Z,17.60
2018-06-08T05:59:52.344Z,17.25
2018-06-08T06:02:22.656Z,19.60
2018-06-08T06:04:52.992Z,20.57
2018-06-08T06:07:23.213Z,20.40
2018-06-08T06:09:53.232Z,18.75
2018-06-08T06:12:23.237Z,20.55
2018-06-08T06:14:52.976Z,19.55
2018-06-08T06:17:23.077Z,20.32
2018-06-08T06:19:52.272Z,20.90
2018-06-08T06:22:22.028Z,20.95
2018-06-08T06:24:52.116Z,21.20
2018-06-08T06:27:22.057Z,20.75
2018-06-08T06:29:51.989Z,20.45
2018-06-08T06:32:21.863Z,21.23
2018-06-08T06:34:51.985Z,23.60
2018-06-08T06:37:22.122Z,24.05
2018-06-08T06:39:52.004Z,22.10
2018-06-08T06:42:22.057Z,24.10
2018-06-08T06:44:52.994Z,24.40
2018-06-08T06:47:23.116Z,22.67
2018-06-08T06:49:52.208Z,23.90
2018-06-08T06:52:22.128Z,25.62
2018-06-08T06:54:52.148Z,24.30
2018-06-08T06:57:22.261Z,26.05
2018-06-08T06:59:52.388Z,22.73
2018-06-08T07:02:21.990Z,21.93
2018-06-08T07:04:51.080Z,24.63
2018-06-08T07:07:20.565Z,25.97
2018-06-08T07:09:51.581Z,24.87
2018-06-08T07:12:21.837Z,26.97
2018-06-08T07:14:52.671Z,26.35
2018-06-08T07:17:22.552Z,25.02
2018-06-08T07:19:51.781Z,25.92
2018-06-08T07:22:22.384Z,27.48
2018-06-08T07:24:52.452Z,26.12
2018-06-08T07:27:22.764Z,25.92
2018-06-08T07:29:53.814Z,24.75
2018-06-08T07:32:24.524Z,27.13
2018-06-08T07:34:54.646Z,24.20
2018-06-08T07:37:24.862Z,25.97
2018-06-08T07:39:54.916Z,24.67
2018-06-08T07:42:25.320Z,27.35
2018-06-08T07:44:55.684Z,27.48
2018-06-08T07:47:25.894Z,26.85
2018-06-08T07:49:57.124Z,26.00
2018-06-08T07:52:27.719Z,23.98
2018-06-08T07:54:59.210Z,23.42
2018-06-08T07:57:29.639Z,22.95
2018-06-08T08:00:00.171Z,22.15
2018-06-08T08:02:29.980Z,21.40
2018-06-08T08:05:00.165Z,21.85
2018-06-08T08:07:33.165Z,20.97
2018-06-08T08:10:04.336Z,16.70
2018-06-08T08:12:34.599Z,19.30
2018-06-08T08:15:05.784Z,17.37
2018-06-08T08:17:37.454Z,17.75
2018-06-08T08:20:07.961Z,16.35
2018-06-08T08:22:38.813Z,16.60
2018-06-08T08:25:09.708Z,16.40
2018-06-08T08:27:40.298Z,15.15
2018-06-08T08:30:10.352Z,14.87
2018-06-08T08:32:41.008Z,14.73
2018-06-08T08:35:11.940Z,15.93
2018-06-08T08:37:42.596Z,14.23
2018-06-08T08:40:12.810Z,13.30
2018-06-08T08:42:42.684Z,12.85
2018-06-08T08:45:11.928Z,13.35
2018-06-08T08:47:42.360Z,13.45
2018-06-08T08:50:12.376Z,13.62
2018-06-08T08:52:42.599Z,15.80
2018-06-08T08:55:12.620Z,15.50
2018-06-08T08:57:42.840Z,11.68
2018-06-08T09:00:13.349Z,11.48
2018-06-08T09:02:43.380Z,15.53
2018-06-08T09:05:13.429Z,14.30
2018-06-08T09:07:43.439Z,13.08
2018-06-08T09:10:13.956Z,10.43
2018-06-08T09:12:43.760Z,10.00
2018-06-08T09:15:13.115Z,12.23
2018-06-08T09:17:43.363Z,11.03
2018-06-08T09:20:14.069Z,9.23
2018-06-08T09:22:44.396Z,9.30
2018-06-08T09:25:15.979Z,8.45
2018-06-08T09:27:46.176Z,8.30
2018-06-08T09:30:16.228Z,9.13
2018-06-08T09:32:48.432Z,9.68
2018-06-08T09:35:18.885Z,11.73
2018-06-08T09:37:49.387Z,9.98
2018-06-08T09:40:19.547Z,9.68
2018-06-08T09:42:49.614Z,7.97
2018-06-08T09:45:20.030Z,8.33
2018-06-08T09:47:52.101Z,10.08
2018-06-08T09:50:23.036Z,9.90
2018-06-08T09:52:53.381Z,8.95
2018-06-08T09:55:23.588Z,8.40
2018-06-08T09:57:53.035Z,8.60
2018-06-08T10:00:29.308Z,7.92
2018-06-08T10:02:59.053Z,8.30
2018-06-08T10:05:28.863Z,7.97
2018-06-08T10:07:59.852Z,8.73
2018-06-08T10:10:29.604Z,8.25
2018-06-08T10:12:59.636Z,8.90
2018-06-08T10:15:29.663Z,8.08
2018-06-08T10:17:59.965Z,8.80
2018-06-08T10:20:31.520Z,9.65
2018-06-08T10:23:01.596Z,9.13
2018-06-08T10:25:31.570Z,9.88
2018-06-08T10:28:01.688Z,8.90
2018-06-08T10:30:32.173Z,8.13
2018-06-08T10:33:01.996Z,8.50
2018-06-08T10:35:31.198Z,8.90
2018-06-08T10:38:01.549Z,8.35
2018-06-08T10:40:31.716Z,10.45
2018-06-08T10:43:00.919Z,10.13
2018-06-08T10:45:30.952Z,9.90
2018-06-08T10:48:02.022Z,10.00
2018-06-08T10:50:32.368Z,10.28
2018-06-08T10:53:02.331Z,9.90
2018-06-08T10:55:32.360Z,8.65
2018-06-08T10:58:03.834Z,8.33
2018-06-08T11:00:33.733Z,8.85
2018-06-08T11:03:03.664Z,9.23
2018-06-08T11:05:33.675Z,8.18
2018-06-08T11:08:03.900Z,7.17
2018-06-08T11:10:34.013Z,7.65
2018-06-08T11:13:04.355Z,8.65
2018-06-08T11:15:34.230Z,7.80
2018-06-08T11:18:04.800Z,8.43
2018-06-08T11:20:35.804Z,8.20
2018-06-08T11:23:05.921Z,8.00
2018-06-08T11:25:36.066Z,7.60
2018-06-08T11:28:05.271Z,8.50
2018-06-08T11:30:35.294Z,7.90
2018-06-08T11:33:05.304Z,7.90
2018-06-08T11:35:34.473Z,8.23
2018-06-08T11:38:03.702Z,8.58
2018-06-08T11:40:33.836Z,8.65
2018-06-08T11:43:02.979Z,8.30
2018-06-08T11:45:32.153Z,8.63
2018-06-08T11:48:02.120Z,8.23
2018-06-08T11:50:32.409Z,8.93
2018-06-08T11:53:02.638Z,9.15
2018-06-08T11:55:31.857Z,8.60
2018-06-08T11:58:02.256Z,8.45
2018-06-08T12:00:32.385Z,8.00
2018-06-08T12:03:02.200Z,8.18
2018-06-08T12:05:32.336Z,7.87
2018-06-08T12:08:02.568Z,7.65
2018-06-08T12:10:32.689Z,7.87
2018-06-08T12:13:02.664Z,7.72
2018-06-08T12:15:33.329Z,8.28
2018-06-08T12:18:02.216Z,8.70
2018-06-08T12:20:33.228Z,8.05
2018-06-08T12:23:03.376Z,7.87
2018-06-08T12:25:33.887Z,9.03
2018-06-08T12:28:03.793Z,8.50
2018-06-08T12:30:33.432Z,8.53
2018-06-08T12:33:02.404Z,10.30
2018-06-08T12:35:31.629Z,12.40
2018-06-08T12:38:00.805Z,13.05
2018-06-08T12:40:30.948Z,12.50
2018-06-08T12:43:00.019Z,11.55
2018-06-08T12:45:29.316Z,10.48
2018-06-08T12:47:59.564Z,10.20
2018-06-08T12:50:28.652Z,9.00
2018-06-08T12:52:58.744Z,7.95
2018-06-08T12:55:29.064Z,7.47
2018-06-08T12:57:58.614Z,7.55
2018-06-08T13:00:27.751Z,6.05
2018-06-08T13:02:57.018Z,7.58
2018-06-08T13:05:26.383Z,7.05
2018-06-08T13:07:55.556Z,7.83
2018-06-08T13:10:24.747Z,7.92
2018-06-08T13:12:54.280Z,7.50
2018-06-08T13:15:24.312Z,7.40
2018-06-08T13:17:53.568Z,6.80
2018-06-08T13:20:22.772Z,7.10
2018-06-08T13:22:52.188Z,6.85
2018-06-08T13:25:22.965Z,6.75
2018-06-08T13:27:53.072Z,6.90
2018-06-08T13:30:22.264Z,7.40
2018-06-08T13:32:51.470Z,6.95
2018-06-08T13:35:21.377Z,6.60
2018-06-08T13:37:50.548Z,6.12
2018-06-08T13:40:19.759Z,7.05
2018-06-08T13:42:48.940Z,6.70
2018-06-08T13:45:18.228Z,5.83
2018-06-08T13:47:47.484Z,6.28
2018-06-08T13:50:16.664Z,6.47
2018-06-08T13:52:45.848Z,6.37
2018-06-08T13:55:15.027Z,5.95
2018-06-08T13:57:45.256Z,6.40
2018-06-08T14:00:14.513Z,6.30
2018-06-08T14:02:43.792Z,6.17
2018-06-08T14:05:13.301Z,6.20
2018-06-08T14:07:43.172Z,6.60
2018-06-08T14:10:13.590Z,5.70
2018-06-08T14:12:42.710Z,5.17
2018-06-08T14:15:12.624Z,5.50
2018-06-08T14:17:41.849Z,5.75
2018-06-08T14:20:11.748Z,5.60
2018-06-08T14:22:40.904Z,5.30
2018-06-08T14:25:10.936Z,5.58
2018-06-08T14:27:40.221Z,6.03
2018-06-08T14:30:10.217Z,5.87
2018-06-08T14:32:39.360Z,5.60
2018-06-08T14:35:08.548Z,5.58
2018-06-08T14:37:38.260Z,5.00
2018-06-08T14:40:07.689Z,5.45
2018-06-08T14:42:36.856Z,6.03
2018-06-08T14:45:06.668Z,5.53
2018-06-08T14:47:35.878Z,5.70
2018-06-08T14:50:05.093Z,5.70
2018-06-08T14:52:34.612Z,5.90
2018-06-08T14:55:04.737Z,5.33
2018-06-08T14:57:33.900Z,5.87
2018-06-08T15:00:04.227Z,5.90
2018-06-08T15:02:34.465Z,6.20
2018-06-08T15:05:03.680Z,5.72
2018-06-08T15:07:32.820Z,6.20
2018-06-08T15:10:02.756Z,6.05
2018-06-08T15:12:31.957Z,6.37
2018-06-08T15:15:01.049Z,6.55
2018-06-08T15:17:30.276Z,6.33
2018-06-08T15:19:59.448Z,6.45
2018-06-08T15:22:28.644Z,6.60
2018-06-08T15:24:58.125Z,6.37
2018-06-08T15:27:27.352Z,6.72
2018-06-08T15:29:56.544Z,6.75
2018-06-08T15:32:26.548Z,6.50
2018-06-08T15:34:56.276Z,7.08
2018-06-08T15:37:25.445Z,6.40
2018-06-08T15:39:54.685Z,7.22
2018-06-08T15:42:23.852Z,5.70
2018-06-08T15:44:53.051Z,5.75
2018-06-08T15:47:23.158Z,6.92
2018-06-08T15:49:52.380Z,8.25
2018-06-08T15:52:21.664Z,11.10
2018-06-08T15:54:51.587Z,10.78
2018-06-08T15:57:20.802Z,9.95
2018-06-08T15:59:50.945Z,9.23
2018-06-08T16:02:20.920Z,9.10
2018-06-08T16:04:50.977Z,9.65
2018-06-08T16:07:20.132Z,9.58
2018-06-08T16:09:49.946Z,9.68
2018-06-08T16:12:19.144Z,11.45
2018-06-08T16:14:48.352Z,10.35
2018-06-08T16:17:17.672Z,11.25
2018-06-08T16:19:47.075Z,11.15
2018-06-08T16:22:16.234Z,10.93
2018-06-08T16:24:45.849Z,11.75
2018-06-08T16:27:15.117Z,11.65
2018-06-08T16:29:44.447Z,12.18
2018-06-08T16:32:14.568Z,11.63
2018-06-08T16:34:43.829Z,12.03
2018-06-08T16:37:12.952Z,12.60
2018-06-08T16:39:42.468Z,12.78
2018-06-08T16:42:11.708Z,12.45
2018-06-08T16:44:41.009Z,12.45
2018-06-08T16:47:10.160Z,12.60
2018-06-08T16:49:39.784Z,12.30
2018-06-08T16:52:09.021Z,13.05
2018-06-08T16:54:38.992Z,12.80
2018-06-08T16:57:08.201Z,12.50
2018-06-08T16:59:38.307Z,11.88
2018-06-08T17:02:08.221Z,12.73
2018-06-08T17:04:38.244Z,12.23
2018-06-08T17:07:07.838Z,12.60
2018-06-08T17:09:37.044Z,11.73
2018-06-08T17:12:07.202Z,12.85
2018-06-08T17:14:36.372Z,12.93
2018-06-08T17:17:05.469Z,13.10
2018-06-08T17:19:35.408Z,13.10
2018-06-08T17:22:04.600Z,12.33
2018-06-08T17:24:34.729Z,13.30
2018-06-08T17:27:03.875Z,12.35
2018-06-08T17:29:33.941Z,12.45
2018-06-08T17:32:03.317Z,12.73
2018-06-08T17:34:32.516Z,14.47
2018-06-08T17:37:02.049Z,12.78
2018-06-08T17:39:31.221Z,13.48
2018-06-08T17:42:00.440Z,14.58
2018-06-08T17:44:29.804Z,14.20
2018-06-08T17:46:59.045Z,14.10
2018-06-08T17:49:29.420Z,14.47
2018-06-08T17:51:58.671Z,15.15
2018-06-08T17:54:27.968Z,14.80
2018-06-08T17:56:57.164Z,15.78
2018-06-08T17:59:26.676Z,16.10
2018-06-08T18:01:55.828Z,15.40
2018-06-08T18:04:25.041Z,15.85
2018-06-08T18:06:55.148Z,17.75
2018-06-08T18:09:24.856Z,18.05
2018-06-08T18:11:54.071Z,16.55
2018-06-08T18:14:23.562Z,17.40
2018-06-08T18:16:52.756Z,17.90
2018-06-08T18:19:22.096Z,17.73
2018-06-08T18:21:51.664Z,17.20
2018-06-08T18:24:20.876Z,17.50
2018-06-08T18:26:49.996Z,17.48
2018-06-08T18:29:19.564Z,18.17
2018-06-08T18:31:49.008Z,17.67
2018-06-08T18:34:18.156Z,18.95
2018-06-08T18:36:47.708Z,18.05
2018-06-08T18:39:16.873Z,18.92
2018-06-08T18:41:46.096Z,18.07
2018-06-08T18:44:15.142Z,19.95
2018-06-08T18:46:44.360Z,17.23
2018-06-08T18:49:13.493Z,18.15
2018-06-08T18:51:42.896Z,18.95
2018-06-08T18:54:12.072Z,18.95
2018-06-08T18:56:41.392Z,17.57
2018-06-08T18:59:10.572Z,17.23
2018-06-08T19:01:41.128Z,17.12
2018-06-08T19:04:10.392Z,17.32
2018-06-08T19:06:39.592Z,17.67
2018-06-08T19:09:10.323Z,18.17
2018-06-08T19:11:39.552Z,16.67
2018-06-08T19:14:09.776Z,17.17
2018-06-08T19:16:38.972Z,17.77
2018-06-08T19:19:08.120Z,17.92
2018-06-08T19:21:37.532Z,18.25
2018-06-08T19:24:06.730Z,18.15
2018-06-08T19:26:35.940Z,18.62
2018-06-08T19:29:05.472Z,19.42
2018-06-08T19:31:34.620Z,19.07
2018-06-08T19:34:03.848Z,19.10
2018-06-08T19:36:32.968Z,19.30
2018-06-08T19:39:02.340Z,19.65
2018-06-08T19:41:32.158Z,18.82
2018-06-08T19:44:01.657Z,18.40
2018-06-08T19:46:31.701Z,19.55
2018-06-08T19:49:00.952Z,19.12
2018-06-08T19:51:30.581Z,19.52
2018-06-08T19:53:59.805Z,20.48
2018-06-08T19:56:29.004Z,19.20
2018-06-08T19:58:58.307Z,19.92
2018-06-08T20:01:27.451Z,19.85
2018-06-08T20:03:56.700Z,20.45
2018-06-08T20:06:25.896Z,20.75
2018-06-08T20:08:55.301Z,20.40
2018-06-08T20:11:25.217Z,20.57
2018-06-08T20:13:54.385Z,20.43
2018-06-08T20:16:23.505Z,21.48
2018-06-08T20:18:52.768Z,20.88
2018-06-08T20:21:21.980Z,21.02
2018-06-08T20:23:51.324Z,20.35
2018-06-08T20:26:20.428Z,20.27
2018-06-08T20:28:49.704Z,20.60
2018-06-08T20:31:19.412Z,20.77
2018-06-08T20:33:48.684Z,21.25
2018-06-08T20:36:18.089Z,20.72
2018-06-08T20:38:47.480Z,21.12
2018-06-08T20:41:16.616Z,20.85
2018-06-08T20:43:45.775Z,20.90
2018-06-08T20:46:15.009Z,21.90
2018-06-08T20:48:44.492Z,21.48
2018-06-08T20:51:13.654Z,21.82
2018-06-08T20:53:43.176Z,22.58
2018-06-08T20:56:12.904Z,23.00
2018-06-08T20:58:43.094Z,22.55
2018-06-08T21:01:12.501Z,22.27
2018-06-08T21:03:41.725Z,22.73
2018-06-08T21:06:10.944Z,22.30
2018-06-08T21:08:40.152Z,22.62
2018-06-08T21:11:09.304Z,22.87
2018-06-08T21:13:38.546Z,23.42
2018-06-08T21:16:07.996Z,23.77
2018-06-08T21:18:37.195Z,24.55
2018-06-08T21:21:06.392Z,24.82
2018-06-08T21:23:35.536Z,24.30
2018-06-08T21:26:04.748Z,24.05
2018-06-08T21:28:34.396Z,24.10
2018-06-08T21:31:03.512Z,24.72
2018-06-08T21:33:32.736Z,24.90
2018-06-08T21:36:01.908Z,26.68
2018-06-08T21:38:31.186Z,26.33
2018-06-08T21:41:00.896Z,26.00
2018-06-08T21:43:30.112Z,25.95
2018-06-08T21:45:59.648Z,25.40
2018-06-08T21:48:28.864Z,26.85
2018-06-08T21:50:58.469Z,26.30
2018-06-08T21:53:27.920Z,26.50
2018-06-08T21:55:57.053Z,27.15
2018-06-08T21:58:26.168Z,28.12
2018-06-08T22:00:55.820Z,27.95
2018-06-08T22:03:25.059Z,27.32
2018-06-08T22:05:54.253Z,29.52
2018-06-08T22:08:23.763Z,28.05
2018-06-08T22:10:52.956Z,28.87
2018-06-08T22:13:22.153Z,28.98
2018-06-08T22:15:51.432Z,28.95
2018-06-08T22:18:21.992Z,28.85
2018-06-08T22:20:51.644Z,28.45
2018-06-08T22:23:20.789Z,27.93
2018-06-08T22:25:50.424Z,28.92
2018-06-08T22:28:19.673Z,26.68
2018-06-08T22:30:48.871Z,26.55
2018-06-08T22:33:18.400Z,26.62
2018-06-08T22:35:47.588Z,27.40
2018-06-08T22:38:16.769Z,27.37
2018-06-08T22:40:46.260Z,28.12
2018-06-08T22:43:15.338Z,26.97
2018-06-08T22:45:44.673Z,26.70
2018-06-08T22:48:14.203Z,28.92
2018-06-08T22:50:43.311Z,28.73
2018-06-08T22:53:12.456Z,29.20
2018-06-08T22:55:41.993Z,28.75
2018-06-08T22:58:11.264Z,30.23
2018-06-08T23:00:40.880Z,30.05
2018-06-08T23:03:11.096Z,29.00
2018-06-08T23:05:40.196Z,29.77
2018-06-08T23:08:09.421Z,29.85
2018-06-08T23:10:39.235Z,29.23
2018-06-08T23:13:08.402Z,29.18
2018-06-08T23:15:37.591Z,30.30
2018-06-08T23:18:06.832Z,30.20
2018-06-08T23:20:36.077Z,28.70
2018-06-08T23:23:05.581Z,28.90
2018-06-08T23:25:34.996Z,30.52
2018-06-08T23:28:04.604Z,31.02
2018-06-08T23:30:33.841Z,30.80
2018-06-08T23:33:03.549Z,31.20
2018-06-08T23:35:32.824Z,32.85
2018-06-08T23:38:02.010Z,30.25
2018-06-08T23:40:31.757Z,29.10
2018-06-08T23:43:00.916Z,29.18
2018-06-08T23:45:30.129Z,29.82
2018-06-08T23:47:59.728Z,29.37
2018-06-08T23:50:28.932Z,28.65
2018-06-08T23:52:58.157Z,28.67
2018-06-08T23:55:27.304Z,28.98
2018-06-08T23:57:56.412Z,28.90
